createdAt,value
2019-02-20T00:00:46.779Z,18.20
2019-02-20T00:06:23.610Z,15.60
2019-02-20T00:08:52.180Z,16.03
2019-02-20T00:11:20.894Z,17.03
2019-02-20T00:13:49.562Z,18.33
2019-02-20T00:16:18.256Z,14.90
2019-02-20T00:18:46.914Z,19.13
2019-02-20T00:21:34.803Z,20.30
2019-02-20T00:24:03.393Z,23.17
2019-02-20T00:26:32.000Z,21.70
2019-02-20T00:29:19.984Z,18.70
2019-02-20T00:31:48.640Z,20.10
2019-02-20T00:34:17.309Z,19.57
2019-02-20T00:37:05.248Z,23.53
2019-02-20T00:39:33.898Z,20.57
2019-02-20T00:42:02.638Z,27.53
2019-02-20T00:45:09.578Z,18.27
2019-02-20T00:47:57.343Z,22.87
2019-02-20T00:53:34.486Z,23.33
2019-02-20T00:56:03.151Z,24.93
2019-02-20T00:58:31.810Z,22.13
2019-02-20T01:01:00.501Z,21.40
2019-02-20T01:03:29.338Z,20.00
2019-02-20T01:05:57.991Z,22.23
2019-02-20T01:08:26.568Z,28.47
2019-02-20T01:10:55.393Z,17.63
2019-02-20T01:13:23.963Z,26.27
2019-02-20T01:15:52.658Z,17.73
2019-02-20T01:21:10.615Z,24.87
2019-02-20T01:23:39.304Z,21.33
2019-02-20T01:26:07.955Z,23.20
2019-02-20T01:28:36.640Z,21.20
2019-02-20T01:31:05.304Z,22.77
2019-02-20T01:33:33.999Z,20.03
2019-02-20T01:38:50.314Z,17.27
2019-02-20T01:41:18.992Z,17.57
2019-02-20T01:43:47.618Z,22.23
2019-02-20T01:46:35.536Z,22.53
2019-02-20T01:49:23.571Z,16.37
2019-02-20T01:51:52.310Z,16.97
2019-02-20T01:54:21.014Z,18.80
2019-02-20T01:56:49.726Z,14.10
2019-02-20T01:59:18.381Z,17.40
2019-02-20T02:01:47.062Z,16.47
2019-02-20T02:04:35.124Z,16.73
2019-02-20T02:07:03.778Z,15.33
2019-02-20T02:09:51.635Z,14.57
2019-02-20T02:12:20.357Z,17.57
2019-02-20T02:14:49.084Z,16.20
2019-02-20T02:17:36.894Z,17.70
2019-02-20T02:20:45.325Z,18.77
2019-02-20T02:23:19.836Z,16.33
2019-02-20T02:25:44.398Z,14.60
2019-02-20T02:28:13.112Z,15.47
2019-02-20T02:30:41.791Z,14.97
2019-02-20T02:33:10.492Z,14.73
2019-02-20T02:35:58.314Z,14.43
2019-02-20T02:38:27.005Z,12.63
2019-02-20T02:40:55.711Z,15.37
2019-02-20T02:43:24.412Z,16.57
2019-02-20T02:46:12.361Z,16.97
2019-02-20T02:48:41.095Z,18.67
2019-02-20T02:51:09.796Z,18.20
2019-02-20T02:56:12.743Z,14.27
2019-02-20T02:58:41.440Z,17.90
2019-02-20T03:01:10.144Z,12.83
2019-02-20T03:03:58.046Z,12.77
2019-02-20T03:06:26.683Z,16.53
2019-02-20T03:08:55.359Z,14.97
2019-02-20T03:11:43.321Z,15.23
2019-02-20T03:14:12.015Z,19.07
2019-02-20T03:16:59.902Z,13.90
2019-02-20T03:19:47.757Z,14.60
2019-02-20T03:22:16.445Z,13.87
2019-02-20T03:25:04.320Z,16.73
2019-02-20T03:27:32.979Z,14.70
2019-02-20T03:30:20.938Z,16.07
2019-02-20T03:32:49.614Z,14.33
2019-02-20T03:35:18.310Z,18.53
2019-02-20T03:37:46.992Z,19.07
2019-02-20T03:40:15.692Z,16.40
2019-02-20T03:42:44.270Z,16.47
2019-02-20T03:45:12.948Z,18.23
2019-02-20T03:47:41.545Z,14.27
2019-02-20T03:50:29.522Z,17.60
2019-02-20T03:52:58.108Z,15.83
2019-02-20T03:55:26.823Z,12.40
2019-02-20T03:57:55.603Z,13.77
2019-02-20T04:00:24.296Z,18.17
2019-02-20T04:02:53.043Z,27.10
2019-02-20T04:05:21.780Z,18.07
2019-02-20T04:07:50.427Z,20.70
2019-02-20T04:10:19.120Z,20.83
2019-02-20T04:12:47.818Z,20.03
2019-02-20T04:15:16.481Z,20.10
2019-02-20T04:17:45.089Z,17.77
2019-02-20T04:20:13.907Z,19.43
2019-02-20T04:22:42.580Z,20.77
2019-02-20T04:25:11.278Z,21.87
2019-02-20T04:27:39.865Z,14.77
2019-02-20T04:30:48.354Z,16.57
2019-02-20T04:33:17.132Z,19.37
2019-02-20T04:35:45.720Z,18.23
2019-02-20T04:38:14.430Z,24.73
2019-02-20T04:40:43.056Z,17.83
2019-02-20T04:43:11.679Z,18.87
2019-02-20T04:45:40.329Z,18.97
2019-02-20T04:48:09.041Z,16.67
2019-02-20T04:50:37.633Z,19.40
2019-02-20T04:53:06.312Z,17.10
2019-02-20T04:55:34.974Z,16.63
2019-02-20T04:58:23.247Z,16.43
2019-02-20T05:01:11.138Z,17.13
2019-02-20T05:03:39.863Z,21.00
2019-02-20T05:06:08.501Z,19.10
2019-02-20T05:08:37.199Z,17.27
2019-02-20T05:11:25.009Z,21.27
2019-02-20T05:13:53.523Z,20.47
2019-02-20T05:16:22.257Z,18.77
2019-02-20T05:18:50.870Z,18.77
2019-02-20T05:21:38.749Z,21.27
2019-02-20T05:24:07.425Z,17.80
2019-02-20T05:26:36.059Z,17.50
2019-02-20T05:29:04.635Z,23.83
2019-02-20T05:31:33.321Z,19.20
2019-02-20T05:34:21.234Z,19.43
2019-02-20T05:36:49.881Z,21.03
2019-02-20T05:39:37.725Z,14.37
2019-02-20T05:42:06.377Z,17.40
2019-02-20T05:44:35.065Z,15.27
2019-02-20T05:47:03.677Z,18.67
2019-02-20T05:49:32.150Z,17.30
2019-02-20T05:52:00.728Z,21.70
2019-02-20T05:54:34.731Z,17.13
2019-02-20T05:56:59.689Z,21.63
2019-02-20T05:59:28.460Z,20.83
2019-02-20T06:01:57.176Z,22.00
2019-02-20T06:04:45.205Z,19.67
2019-02-20T06:07:14.006Z,18.17
2019-02-20T06:10:01.943Z,17.77
2019-02-20T06:12:50.296Z,22.40
2019-02-20T06:15:38.227Z,21.23
2019-02-20T06:18:06.886Z,20.57
2019-02-20T06:20:35.527Z,21.03
2019-02-20T06:23:23.492Z,23.43
2019-02-20T06:29:00.321Z,20.33
2019-02-20T06:31:48.018Z,24.27
2019-02-20T06:34:16.774Z,33.47
2019-02-20T06:36:45.550Z,32.00
2019-02-20T06:39:14.323Z,37.00
2019-02-20T06:41:43.007Z,29.17
2019-02-20T06:44:11.703Z,45.37
2019-02-20T06:46:40.362Z,40.03
2019-02-20T06:49:09.066Z,40.03
2019-02-20T06:51:37.724Z,41.97
2019-02-20T06:56:59.442Z,27.43
2019-02-20T06:59:28.131Z,31.60
2019-02-20T07:01:56.798Z,34.17
2019-02-20T07:04:25.519Z,31.43
2019-02-20T07:07:34.048Z,36.77
2019-02-20T07:10:42.558Z,35.20
2019-02-20T07:13:51.035Z,40.87
2019-02-20T07:16:59.543Z,21.87
2019-02-20T07:20:08.092Z,33.80
2019-02-20T07:23:15.330Z,21.57
2019-02-20T07:26:22.443Z,22.97
2019-02-20T07:29:29.595Z,29.00
2019-02-20T07:31:58.286Z,23.93
2019-02-20T07:34:26.952Z,23.97
2019-02-20T07:36:55.654Z,31.00
2019-02-20T07:39:24.353Z,29.83
2019-02-20T07:41:53.114Z,22.87
2019-02-20T07:44:21.750Z,39.13
2019-02-20T07:46:50.347Z,35.87
2019-02-20T07:49:19.119Z,35.40
2019-02-20T07:52:07.063Z,34.10
2019-02-20T07:54:35.795Z,31.63
2019-02-20T07:57:23.694Z,25.67
2019-02-20T08:00:11.619Z,23.90
2019-02-20T08:02:40.318Z,27.20
2019-02-20T08:05:08.985Z,22.13
2019-02-20T08:07:37.669Z,25.47
2019-02-20T08:10:46.150Z,24.23
2019-02-20T08:13:14.822Z,22.37
2019-02-20T08:15:43.509Z,21.10
2019-02-20T08:18:12.228Z,21.77
2019-02-20T08:20:40.888Z,18.47
2019-02-20T08:23:09.518Z,19.83
2019-02-20T08:25:38.137Z,20.87
2019-02-20T08:28:06.816Z,26.23
2019-02-20T08:30:35.525Z,20.37
2019-02-20T08:33:04.133Z,22.27
2019-02-20T08:35:32.809Z,18.27
2019-02-20T08:38:01.457Z,17.77
2019-02-20T08:40:30.169Z,16.13
2019-02-20T08:42:58.776Z,17.80
2019-02-20T08:45:27.486Z,19.90
2019-02-20T08:47:55.989Z,14.10
2019-02-20T08:50:24.698Z,14.53
2019-02-20T08:52:53.428Z,15.53
2019-02-20T08:55:41.324Z,17.53
2019-02-20T08:58:10.001Z,15.63
2019-02-20T09:00:38.690Z,14.43
2019-02-20T09:03:07.381Z,13.40
2019-02-20T09:05:36.116Z,18.47
2019-02-20T09:08:04.827Z,13.93
2019-02-20T09:10:33.478Z,15.00
2019-02-20T09:13:02.260Z,16.13
2019-02-20T09:15:30.927Z,21.27
2019-02-20T09:17:59.587Z,23.17
2019-02-20T09:20:28.273Z,17.63
2019-02-20T09:22:56.840Z,19.60
2019-02-20T09:25:25.475Z,13.53
2019-02-20T09:27:54.121Z,18.33
2019-02-20T09:30:28.525Z,14.30
2019-02-20T09:32:53.138Z,16.40
2019-02-20T09:35:21.773Z,10.87
2019-02-20T09:37:50.434Z,13.13
2019-02-20T09:40:58.907Z,15.17
2019-02-20T09:43:27.486Z,10.77
2019-02-20T09:45:56.179Z,13.37
2019-02-20T09:48:24.820Z,15.30
2019-02-20T09:50:53.396Z,19.00
2019-02-20T09:53:22.187Z,21.67
2019-02-20T09:55:51.858Z,16.70
2019-02-20T09:58:21.254Z,15.60
2019-02-20T10:00:49.949Z,12.90
2019-02-20T10:03:18.639Z,11.80
2019-02-20T10:05:47.256Z,14.80
2019-02-20T10:08:15.847Z,14.43
2019-02-20T10:10:44.540Z,10.97
2019-02-20T10:13:13.190Z,10.13
2019-02-20T10:15:41.882Z,9.87
2019-02-20T10:18:12.153Z,13.80
2019-02-20T10:20:40.961Z,8.50
2019-02-20T10:23:09.617Z,9.57
2019-02-20T10:25:38.341Z,14.37
2019-02-20T10:28:26.235Z,12.03
2019-02-20T10:30:54.950Z,9.47
2019-02-20T10:33:23.628Z,10.00
2019-02-20T10:35:52.210Z,9.70
2019-02-20T10:38:20.995Z,9.87
2019-02-20T10:40:49.680Z,11.93
2019-02-20T10:43:18.371Z,11.93
2019-02-20T10:45:47.104Z,9.93
2019-02-20T10:48:15.790Z,9.43
2019-02-20T10:51:03.679Z,6.13
2019-02-20T10:53:32.325Z,8.53
2019-02-20T10:56:08.904Z,7.17
2019-02-20T10:58:31.324Z,7.23
2019-02-20T11:01:00.023Z,6.90
2019-02-20T11:03:28.721Z,7.70
2019-02-20T11:05:57.354Z,7.47
2019-02-20T11:08:26.025Z,7.23
2019-02-20T11:10:54.658Z,10.27
2019-02-20T11:13:23.272Z,8.33
2019-02-20T11:15:51.940Z,7.37
2019-02-20T11:18:20.680Z,5.63
2019-02-20T11:20:49.259Z,7.63
2019-02-20T11:23:17.880Z,5.23
2019-02-20T11:25:46.579Z,12.13
2019-02-20T11:28:15.263Z,5.30
2019-02-20T11:30:43.943Z,4.97
2019-02-20T11:33:12.448Z,7.60
2019-02-20T11:35:41.130Z,6.03
2019-02-20T11:38:09.769Z,4.97
2019-02-20T11:40:38.472Z,5.70
2019-02-20T11:43:07.128Z,4.40
2019-02-20T11:45:35.828Z,3.53
2019-02-20T11:48:04.475Z,5.77
2019-02-20T11:51:12.952Z,4.73
2019-02-20T11:53:41.468Z,5.17
2019-02-20T11:56:10.158Z,4.30
2019-02-20T11:58:38.804Z,3.90
2019-02-20T12:01:07.524Z,4.93
2019-02-20T12:03:36.188Z,6.73
2019-02-20T12:06:04.826Z,6.77
2019-02-20T12:08:33.462Z,5.37
2019-02-20T12:11:02.140Z,6.90
2019-02-20T12:16:18.347Z,7.33
2019-02-20T12:18:47.055Z,5.87
2019-02-20T12:21:15.788Z,8.77
2019-02-20T12:23:44.430Z,5.27
2019-02-20T12:26:13.056Z,8.07
2019-02-20T12:28:41.615Z,6.13
2019-02-20T12:31:10.320Z,6.20
2019-02-20T12:33:38.965Z,6.87
2019-02-20T12:36:07.734Z,5.60
2019-02-20T12:38:37.280Z,4.67
2019-02-20T12:41:06.722Z,3.10
2019-02-20T12:43:35.343Z,4.13
2019-02-20T12:46:03.940Z,5.03
2019-02-20T12:48:32.553Z,6.23
2019-02-20T12:51:01.128Z,4.17
2019-02-20T12:53:29.690Z,2.90
2019-02-20T12:55:58.386Z,5.77
2019-02-20T12:58:27.072Z,4.10
2019-02-20T13:00:55.840Z,4.37
2019-02-20T13:03:24.538Z,4.57
2019-02-20T13:05:53.175Z,4.47
2019-02-20T13:08:21.928Z,6.43
2019-02-20T13:10:50.639Z,5.07
2019-02-20T13:13:19.243Z,6.03
2019-02-20T13:15:47.935Z,3.80
2019-02-20T13:18:16.670Z,3.63
2019-02-20T13:20:45.409Z,5.03
2019-02-20T13:23:14.296Z,3.83
2019-02-20T13:25:42.984Z,3.70
2019-02-20T13:28:11.659Z,5.10
2019-02-20T13:30:40.344Z,8.27
2019-02-20T13:33:08.997Z,6.00
2019-02-20T13:35:37.626Z,4.10
2019-02-20T13:38:06.293Z,7.00
2019-02-20T13:40:34.982Z,5.40
2019-02-20T13:43:03.690Z,4.70
2019-02-20T13:45:32.296Z,3.83
2019-02-20T13:48:01.053Z,5.63
2019-02-20T13:50:29.666Z,5.57
2019-02-20T13:52:58.344Z,5.90
2019-02-20T13:55:34.213Z,6.33
2019-02-20T13:57:57.532Z,4.17
2019-02-20T14:00:26.219Z,5.07
2019-02-20T14:02:54.955Z,4.43
2019-02-20T14:05:25.389Z,5.00
2019-02-20T14:07:54.040Z,4.83
2019-02-20T14:10:22.740Z,6.30
2019-02-20T14:12:51.424Z,5.10
2019-02-20T14:15:20.114Z,4.83
2019-02-20T14:17:48.755Z,4.47
2019-02-20T14:20:17.536Z,8.53
2019-02-20T14:22:46.055Z,5.53
2019-02-20T14:25:14.696Z,7.27
2019-02-20T14:27:43.392Z,5.27
2019-02-20T14:30:51.902Z,6.60
2019-02-20T14:33:20.535Z,6.03
2019-02-20T14:35:49.191Z,5.93
2019-02-20T14:38:17.888Z,5.40
2019-02-20T14:41:05.819Z,8.47
2019-02-20T14:43:34.524Z,7.30
2019-02-20T14:46:03.161Z,7.17
2019-02-20T14:48:31.876Z,4.87
2019-02-20T14:51:00.585Z,7.30
2019-02-20T14:53:29.224Z,5.40
2019-02-20T14:55:58.050Z,6.07
2019-02-20T14:58:28.464Z,6.87
2019-02-20T15:00:57.112Z,4.83
2019-02-20T15:03:25.806Z,6.00
2019-02-20T15:05:54.505Z,8.23
2019-02-20T15:08:23.093Z,5.90
2019-02-20T15:10:51.772Z,6.87
2019-02-20T15:13:22.128Z,7.43
2019-02-20T15:15:50.831Z,5.40
2019-02-20T15:18:19.530Z,8.60
2019-02-20T15:21:07.403Z,6.53
2019-02-20T15:23:35.983Z,7.00
2019-02-20T15:26:06.401Z,5.80
2019-02-20T15:28:35.073Z,5.47
2019-02-20T15:31:03.724Z,7.47
2019-02-20T15:33:32.425Z,6.53
2019-02-20T15:36:20.383Z,6.97
2019-02-20T15:38:49.109Z,12.43
2019-02-20T15:41:17.771Z,7.30
2019-02-20T15:43:46.549Z,8.37
2019-02-20T15:46:15.197Z,8.57
2019-02-20T15:48:43.884Z,7.57
2019-02-20T15:51:12.480Z,9.57
2019-02-20T15:53:42.917Z,7.77
2019-02-20T15:56:11.556Z,6.73
2019-02-20T15:58:40.325Z,6.80
2019-02-20T16:01:48.815Z,6.97
2019-02-20T16:04:17.398Z,13.93
2019-02-20T16:06:45.978Z,8.00
2019-02-20T16:09:14.654Z,10.83
2019-02-20T16:11:43.388Z,7.77
2019-02-20T16:14:12.039Z,8.37
2019-02-20T16:16:40.836Z,9.27
2019-02-20T16:19:09.555Z,9.80
2019-02-20T16:21:57.503Z,8.50
2019-02-20T16:24:26.141Z,8.63
2019-02-20T16:26:54.789Z,9.70
2019-02-20T16:29:23.483Z,13.63
2019-02-20T16:31:52.158Z,9.93
2019-02-20T16:34:20.800Z,10.47
2019-02-20T16:36:49.561Z,9.93
2019-02-20T16:39:18.079Z,12.63
2019-02-20T16:41:46.767Z,8.43
2019-02-20T16:44:34.767Z,9.23
2019-02-20T16:47:22.619Z,9.03
2019-02-20T16:49:51.353Z,7.40
2019-02-20T16:52:20.107Z,10.30
2019-02-20T16:54:50.519Z,8.73
2019-02-20T16:57:19.100Z,10.77
2019-02-20T16:59:47.784Z,8.60
2019-02-20T17:02:16.698Z,8.07
2019-02-20T17:04:46.227Z,10.17
2019-02-20T17:09:49.160Z,9.43
2019-02-20T17:12:37.061Z,10.67
2019-02-20T17:15:45.512Z,9.13
2019-02-20T17:18:21.173Z,7.73
2019-02-20T17:21:09.059Z,9.53
2019-02-20T17:23:57.323Z,7.13
2019-02-20T17:26:46.560Z,7.97
2019-02-20T17:29:15.210Z,8.13
2019-02-20T17:31:43.847Z,7.90
2019-02-20T17:34:12.498Z,6.60
2019-02-20T17:36:41.185Z,6.37
2019-02-20T17:39:49.600Z,8.53
2019-02-20T17:42:18.296Z,6.03
2019-02-20T17:44:46.955Z,9.47
2019-02-20T17:47:15.610Z,7.53
2019-02-20T17:49:44.292Z,13.33
2019-02-20T17:52:12.929Z,8.73
2019-02-20T17:54:43.279Z,8.17
2019-02-20T17:57:11.935Z,8.57
2019-02-20T17:59:59.881Z,10.73
2019-02-20T18:02:28.516Z,12.17
2019-02-20T18:04:57.230Z,8.37
2019-02-20T18:07:49.771Z,11.27
2019-02-20T18:10:15.528Z,13.47
2019-02-20T18:12:44.242Z,13.97
2019-02-20T18:15:52.661Z,16.13
2019-02-20T18:18:21.345Z,12.97
2019-02-20T18:21:09.210Z,16.60
2019-02-20T18:23:57.174Z,14.93
2019-02-20T18:26:25.898Z,14.47
2019-02-20T18:28:54.789Z,16.73
2019-02-20T18:34:17.230Z,11.97
2019-02-20T18:36:46.018Z,13.63
2019-02-20T18:39:14.807Z,12.30
2019-02-20T18:42:02.948Z,14.33
2019-02-20T18:44:32.222Z,11.57
2019-02-20T18:47:00.957Z,11.37
2019-02-20T18:49:29.617Z,13.20
2019-02-20T18:51:58.247Z,10.63
2019-02-20T18:54:26.820Z,13.47
2019-02-20T18:56:55.551Z,11.37
2019-02-20T18:59:43.668Z,16.03
2019-02-20T19:02:12.379Z,22.37
2019-02-20T19:04:41.035Z,15.97
2019-02-20T19:07:10.126Z,11.93
2019-02-20T19:13:12.205Z,14.47
2019-02-20T19:16:19.327Z,11.10
2019-02-20T19:19:26.980Z,10.30
2019-02-20T19:22:34.129Z,9.80
2019-02-20T19:25:41.249Z,11.43
2019-02-20T19:28:48.551Z,13.87
2019-02-20T19:31:55.794Z,11.77
2019-02-20T19:35:04.348Z,11.07
2019-02-20T19:38:12.868Z,15.87
2019-02-20T19:41:02.230Z,13.67
2019-02-20T19:44:10.762Z,13.93
2019-02-20T19:47:19.201Z,10.70
2019-02-20T19:50:26.429Z,18.20
2019-02-20T19:53:34.950Z,11.43
2019-02-20T19:56:24.261Z,11.83
2019-02-20T19:59:32.746Z,13.93
2019-02-20T20:02:28.178Z,16.13
2019-02-20T20:05:32.646Z,15.80
2019-02-20T20:08:41.190Z,14.77
2019-02-20T20:11:49.777Z,18.50
2019-02-20T20:14:56.909Z,15.17
2019-02-20T20:17:46.321Z,21.77
2019-02-20T20:20:54.902Z,12.60
2019-02-20T20:24:03.410Z,11.77
2019-02-20T20:27:10.631Z,16.07
2019-02-20T20:30:17.760Z,12.00
2019-02-20T20:33:24.980Z,13.70
2019-02-20T20:36:32.221Z,19.67
2019-02-20T20:39:39.314Z,13.50
2019-02-20T20:42:47.793Z,18.87
2019-02-20T20:45:55.068Z,13.07
2019-02-20T20:49:02.259Z,11.97
2019-02-20T20:52:09.500Z,13.13
2019-02-20T20:55:16.704Z,12.87
2019-02-20T20:58:23.942Z,18.30
2019-02-20T21:01:31.050Z,19.43
2019-02-20T21:04:38.187Z,13.63
2019-02-20T21:07:45.353Z,22.87
2019-02-20T21:13:48.429Z,25.93
2019-02-20T21:16:55.668Z,18.20
2019-02-20T21:20:04.145Z,22.27
2019-02-20T21:23:12.839Z,28.63
2019-02-20T21:26:20.010Z,29.27
2019-02-20T21:29:28.757Z,22.00
2019-02-20T21:32:18.213Z,19.87
2019-02-20T21:35:08.415Z,20.13
2019-02-20T21:38:15.591Z,23.63
2019-02-20T21:41:22.809Z,21.27
2019-02-20T21:44:31.782Z,21.63
2019-02-20T21:47:39.060Z,18.43
2019-02-20T21:50:46.295Z,21.33
2019-02-20T21:53:54.793Z,23.50
2019-02-20T21:57:03.440Z,25.05
2019-02-20T22:00:11.910Z,21.00
2019-02-20T22:03:19.127Z,22.40
2019-02-20T22:06:26.340Z,18.40
2019-02-20T22:09:33.448Z,27.13
2019-02-20T22:12:50.383Z,22.93
2019-02-20T22:15:49.496Z,19.33
2019-02-20T22:18:56.651Z,24.03
2019-02-20T22:22:05.146Z,21.83
2019-02-20T22:25:12.287Z,21.33
2019-02-20T22:28:20.863Z,17.50
2019-02-20T22:31:29.369Z,21.07
2019-02-20T22:34:36.565Z,19.93
2019-02-20T22:37:47.436Z,22.50
2019-02-20T22:40:53.950Z,22.33
2019-02-20T22:44:02.517Z,16.43
2019-02-20T22:47:11.039Z,22.67
2019-02-20T22:50:18.178Z,21.47
2019-02-20T22:53:26.679Z,20.53
2019-02-20T22:56:33.948Z,21.57
2019-02-20T23:02:56.619Z,21.30
2019-02-20T23:06:03.767Z,22.10
2019-02-20T23:09:10.876Z,24.10
2019-02-20T23:12:18.100Z,22.90
2019-02-20T23:15:06.581Z,32.07
2019-02-20T23:17:35.298Z,23.93
2019-02-20T23:23:12.109Z,26.10
2019-02-20T23:25:40.794Z,26.13
2019-02-20T23:28:09.557Z,20.20
2019-02-20T23:30:38.228Z,19.30
2019-02-20T23:33:06.840Z,26.00
2019-02-20T23:35:35.526Z,30.03
2019-02-20T23:38:23.446Z,19.37
2019-02-20T23:40:52.169Z,19.23
2019-02-20T23:43:20.880Z,18.77
2019-02-20T23:45:49.510Z,21.13
2019-02-20T23:48:18.189Z,26.73
2019-02-20T23:50:46.871Z,19.43
2019-02-20T23:53:15.642Z,18.03
2019-02-20T23:55:44.340Z,19.53
2019-02-20T23:58:12.997Z,17.27
